Time;durP1;ratioP1;P1;durP2;ratioP2;P2;SDS_P1;SDS_P2;PMS_P1;PMS_P2;Temp;Humidity;BMP_temperature;BMP_pressure;BME280_temperature;BME280_humidity;BME280_pressure;Samples;Min_cycle;Max_cycle;Signal;HPM_P1;HPM_P2
2022/10/22 00:02:41;;;;;;;1999.90;999.90;;;15.30;99.90;;;;;;6735945;88;20634;-78
2022/10/22 00:12:42;;;;;;;1999.90;999.90;;;15.40;99.90;;;;;;6730025;88;20311;-78
2022/10/22 00:22:42;;;;;;;1999.90;999.90;;;15.50;99.90;;;;;;6734321;88;20161;-78
2022/10/22 00:32:43;;;;;;;1999.90;999.90;;;15.50;99.90;;;;;;6735473;88;20696;-79
2022/10/22 00:42:43;;;;;;;1999.90;999.90;;;15.40;99.90;;;;;;6732188;88;20288;-78
2022/10/22 00:52:44;;;;;;;1999.90;999.90;;;15.40;99.90;;;;;;6732498;88;20217;-78
2022/10/22 01:02:45;;;;;;;1999.90;999.90;;;15.40;99.90;;;;;;6731367;88;20190;-78
2022/10/22 01:13:13;;;;;;;1999.90;999.90;;;15.40;99.90;;;;;;6733272;88;20190;-78
2022/10/22 01:23:41;;;;;;;1999.90;999.90;;;15.40;99.90;;;;;;6729771;88;20231;-78
2022/10/22 01:33:44;;;;;;;1999.90;999.90;;;15.30;99.90;;;;;;6733692;88;20200;-79
2022/10/22 01:43:44;;;;;;;1999.90;999.90;;;15.30;99.90;;;;;;6736087;88;20198;-78
2022/10/22 01:53:54;;;;;;;1999.90;999.90;;;15.30;99.90;;;;;;6731346;88;20854;-78
2022/10/22 02:04:07;;;;;;;1999.90;999.90;;;15.40;99.90;;;;;;6736032;88;20840;-79
2022/10/22 02:14:09;;;;;;;1999.90;999.90;;;15.50;99.90;;;;;;6734043;88;20178;-78
2022/10/22 02:24:10;;;;;;;1999.90;999.90;;;15.50;99.90;;;;;;6733145;88;20241;-78
2022/10/22 02:34:18;;;;;;;1999.90;999.90;;;15.50;99.90;;;;;;6736018;88;20259;-79
2022/10/22 02:44:21;;;;;;;1999.90;999.90;;;15.40;99.90;;;;;;6730387;88;20169;-78
2022/10/22 02:54:21;;;;;;;1999.90;999.90;;;15.40;99.90;;;;;;6730865;88;20307;-79
2022/10/22 03:04:23;;;;;;;1999.90;999.90;;;15.50;99.90;;;;;;6728951;88;20214;-78
2022/10/22 03:14:23;;;;;;;1999.90;999.90;;;15.40;99.90;;;;;;6735485;88;20284;-78
2022/10/22 03:24:34;;;;;;;1999.90;999.90;;;15.40;99.90;;;;;;6730816;88;20605;-78
2022/10/22 03:34:35;;;;;;;1999.90;999.90;;;15.30;99.90;;;;;;6735208;88;20197;-79
2022/10/22 03:44:37;;;;;;;1999.90;999.90;;;15.20;99.90;;;;;;6736060;88;20217;-78
2022/10/22 03:54:39;;;;;;;1999.90;999.90;;;15.20;99.90;;;;;;6734567;88;20735;-79
2022/10/22 04:05:20;;;;;;;1999.90;999.90;;;15.10;99.90;;;;;;6755204;76;20205;-80
2022/10/22 04:15:21;;;;;;;1999.90;999.90;;;14.80;99.90;;;;;;6750073;88;20181;-80
2022/10/22 04:25:21;;;;;;;1999.90;999.90;;;14.60;99.90;;;;;;6734004;88;20214;-80
2022/10/22 04:35:22;;;;;;;1999.90;999.90;;;14.40;99.90;;;;;;6733105;88;20672;-80
2022/10/22 04:45:22;;;;;;;1999.90;999.90;;;14.50;99.90;;;;;;6740645;88;20184;-80
2022/10/22 04:55:23;;;;;;;1999.90;999.90;;;14.30;99.90;;;;;;6747894;88;20200;-80
2022/10/22 05:05:23;;;;;;;1999.90;999.90;;;14.10;99.90;;;;;;6749207;88;20319;-79
2022/10/22 05:15:24;;;;;;;1999.90;999.90;;;13.90;99.90;;;;;;6742872;88;20185;-79
2022/10/22 05:25:24;;;;;;;1999.90;999.90;;;13.80;99.90;;;;;;6741212;88;20214;-79
2022/10/22 05:35:25;;;;;;;1999.90;999.90;;;13.50;99.90;;;;;;6734493;88;20199;-80
2022/10/22 05:45:25;;;;;;;1999.90;999.90;;;13.40;99.90;;;;;;6749713;88;20684;-79
2022/10/22 05:55:26;;;;;;;1999.90;999.90;;;13.40;99.90;;;;;;6745313;88;20583;-79
2022/10/22 06:05:26;;;;;;;1999.90;999.90;;;13.30;99.90;;;;;;6745276;88;20315;-79
2022/10/22 06:15:27;;;;;;;1999.90;999.90;;;13.30;99.90;;;;;;6744802;88;20317;-79
2022/10/22 06:25:28;;;;;;;1999.90;999.90;;;13.20;99.90;;;;;;6741501;88;20518;-80
2022/10/22 06:35:28;;;;;;;1999.90;999.90;;;13.10;99.90;;;;;;6740968;88;20212;-80
2022/10/22 06:45:29;;;;;;;1999.90;999.90;;;13.20;99.90;;;;;;6735454;88;20205;-80
2022/10/22 06:55:29;;;;;;;1999.90;999.90;;;13.30;99.90;;;;;;6736436;88;20233;-80
2022/10/22 07:05:33;;;;;;;1999.90;999.90;;;13.50;99.90;;;;;;6735930;88;20210;-79
2022/10/22 07:15:33;;;;;;;1999.90;999.90;;;13.50;99.90;;;;;;6736692;88;20242;-79
2022/10/22 07:25:34;;;;;;;1999.90;999.90;;;13.30;99.90;;;;;;6741943;88;20219;-79
2022/10/22 07:35:36;;;;;;;1999.90;999.90;;;13.30;99.90;;;;;;6732942;88;20272;-80
2022/10/22 07:45:37;;;;;;;1999.90;999.90;;;13.70;99.90;;;;;;6739555;88;20309;-80
2022/10/22 07:55:37;;;;;;;1999.90;999.90;;;14.50;99.90;;;;;;6737674;88;20224;-79
2022/10/22 08:05:38;;;;;;;1999.90;999.90;;;15.80;99.90;;;;;;6738795;88;20197;-79
2022/10/22 08:15:41;;;;;;;1999.90;999.90;;;16.10;99.90;;;;;;6732491;88;20469;-78
2022/10/22 08:25:41;;;;;;;1999.90;999.90;;;16.60;99.90;;;;;;6736082;88;20190;-78
2022/10/22 08:35:47;;;;;;;1999.90;999.90;;;17.30;99.90;;;;;;6738398;88;20233;-80
2022/10/22 08:46:26;;;;;;;1999.90;999.90;;;18.00;99.90;;;;;;6751802;88;20285;-79
2022/10/22 08:56:28;;;;;;;1999.90;999.90;;;17.70;99.90;;;;;;6748992;88;20235;-81
2022/10/22 09:06:32;;;;;;;1999.90;999.90;;;17.50;99.90;;;;;;6756235;88;20167;-78
2022/10/22 09:16:37;;;;;;;1999.90;999.90;;;17.60;99.90;;;;;;6748496;88;20288;-82
2022/10/22 09:26:40;;;;;;;1999.90;999.90;;;17.40;99.90;;;;;;6743829;88;20202;-80
2022/10/22 09:36:40;;;;;;;1999.90;999.90;;;17.40;99.90;;;;;;6746286;88;20282;-78
2022/10/22 09:46:44;;;;;;;1999.90;999.90;;;17.20;99.90;;;;;;6751294;88;20244;-82
2022/10/22 10:06:54;;;;;;;1999.90;999.90;;;17.30;99.90;;;;;;6724241;88;20235;-77
2022/10/22 10:17:06;;;;;;;1999.90;999.90;;;17.30;99.90;;;;;;6711646;88;20187;-76
2022/10/22 10:27:13;;;;;;;1999.90;999.90;;;17.50;99.90;;;;;;6710403;88;20185;-77
2022/10/22 10:37:22;;;;;;;1999.90;999.90;;;17.70;99.90;;;;;;6714187;88;20247;-77
2022/10/22 10:47:55;;;;;;;1999.90;999.90;;;17.80;99.90;;;;;;6716242;88;20228;-76
2022/10/22 10:58:18;;;;;;;1999.90;999.90;;;17.90;99.90;;;;;;6717245;88;20626;-77
2022/10/22 11:08:35;;;;;;;1999.90;999.90;;;18.20;99.90;;;;;;6710493;88;20264;-77
2022/10/22 11:18:54;;;;;;;1999.90;999.90;;;18.10;99.90;;;;;;6715540;88;20316;-77
2022/10/22 11:28:58;;;;;;;1999.90;999.90;;;18.30;99.90;;;;;;6713420;88;20608;-78
2022/10/22 11:39:03;;;;;;;1999.90;999.90;;;18.20;99.90;;;;;;6718243;88;20334;-77
2022/10/22 11:49:12;;;;;;;1999.90;999.90;;;18.20;99.90;;;;;;6716754;88;20208;-78
2022/10/22 11:59:48;;;;;;;1999.90;999.90;;;18.50;99.90;;;;;;6709126;88;20328;-77
2022/10/22 12:09:51;;;;;;;1999.90;999.90;;;18.60;99.90;;;;;;6704803;88;20304;-77
2022/10/22 12:20:06;;;;;;;1999.90;999.90;;;18.50;99.90;;;;;;6714488;88;20248;-77
2022/10/22 12:30:21;;;;;;;1999.90;999.90;;;19.30;99.90;;;;;;6712564;88;20203;-78
2022/10/22 12:40:30;;;;;;;1999.90;999.90;;;20.40;99.90;;;;;;6716525;88;20290;-77
2022/10/22 12:50:43;;;;;;;1999.90;999.90;;;23.40;99.90;;;;;;6712712;88;20213;-77
2022/10/22 13:00:46;;;;;;;1999.90;999.90;;;23.20;99.90;;;;;;6715050;88;20212;-77
2022/10/22 13:10:53;;;;;;;1999.90;999.90;;;22.80;99.90;;;;;;6716490;88;20244;-77
2022/10/22 13:20:55;;;;;;;1999.90;999.90;;;24.40;99.90;;;;;;6713707;88;20193;-78
2022/10/22 13:30:58;;;;;;;1999.90;999.90;;;22.60;99.90;;;;;;6712882;88;20338;-77
2022/10/22 13:40:59;;;;;;;1999.90;999.90;;;22.10;99.90;;;;;;6713928;88;20175;-76
2022/10/22 13:51:00;;;;;;;1999.90;999.90;;;22.80;99.90;;;;;;6718566;88;20850;-77
2022/10/22 14:01:07;;;;;;;1999.90;999.90;;;22.20;99.90;;;;;;6714364;88;20190;-76
2022/10/22 14:11:11;;;;;;;1999.90;999.90;;;23.10;99.90;;;;;;6718763;88;20830;-78
2022/10/22 14:21:14;;;;;;;1999.90;999.90;;;22.10;99.90;;;;;;6713266;88;20665;-77
2022/10/22 14:31:15;;;;;;;1999.90;999.90;;;22.30;99.90;;;;;;6712264;88;20345;-78
2022/10/22 14:41:16;;;;;;;1999.90;999.90;;;22.40;99.90;;;;;;6722543;88;20211;-79
2022/10/22 14:51:18;;;;;;;1999.90;999.90;;;21.80;99.90;;;;;;6717101;88;20828;-78
2022/10/22 15:01:19;;;;;;;1999.90;999.90;;;21.50;99.90;;;;;;6719093;88;20351;-78
2022/10/22 15:11:21;;;;;;;1999.90;999.90;;;21.20;99.90;;;;;;6716910;88;20272;-79
2022/10/22 15:21:22;;;;;;;1999.90;999.90;;;20.60;99.90;;;;;;6718531;88;20196;-79
2022/10/22 15:31:45;;;;;;;1999.90;999.90;;;20.10;99.90;;;;;;6719873;88;20206;-77
2022/10/22 15:41:47;;;;;;;1999.90;999.90;;;19.90;99.90;;;;;;6720612;88;20890;-77
2022/10/22 15:51:47;;;;;;;1999.90;999.90;;;19.60;99.90;;;;;;6714182;88;20253;-78
2022/10/22 16:11:52;;;;;;;1999.90;999.90;;;19.00;99.90;;;;;;6772949;88;21114;-81
2022/10/22 16:21:54;;;;;;;1999.90;999.90;;;18.80;99.90;;;;;;6759050;88;20318;-80
2022/10/22 16:31:54;;;;;;;1999.90;999.90;;;18.70;99.90;;;;;;6749439;88;20643;-81
2022/10/22 16:41:55;;;;;;;1999.90;999.90;;;18.40;99.90;;;;;;6762964;88;20231;-80
2022/10/22 16:51:55;;;;;;;1999.90;999.90;;;18.20;99.90;;;;;;6765288;88;20214;-79
2022/10/22 17:01:56;;;;;;;1999.90;999.90;;;17.70;99.90;;;;;;6749637;88;20216;-79
2022/10/22 17:11:56;;;;;;;1999.90;999.90;;;17.40;99.90;;;;;;6743196;88;20612;-77
2022/10/22 17:21:57;;;;;;;1999.90;999.90;;;17.30;99.90;;;;;;6748102;88;20320;-77
2022/10/22 17:31:57;;;;;;;1999.90;999.90;;;17.00;99.90;;;;;;6741468;88;20198;-78
2022/10/22 17:41:58;;;;;;;1999.90;999.90;;;16.80;99.90;;;;;;6745428;88;20200;-77
2022/10/22 17:51:59;;;;;;;1999.90;999.90;;;16.70;99.90;;;;;;6752124;88;20320;-79
2022/10/22 18:02:01;;;;;;;1999.90;999.90;;;16.40;99.90;;;;;;6746564;87;20212;-77
2022/10/22 18:12:01;;;;;;;1999.90;999.90;;;16.20;99.90;;;;;;6744312;88;20361;-80
2022/10/22 18:22:03;;;;;;;1999.90;999.90;;;16.00;99.90;;;;;;6747873;88;20223;-76
2022/10/22 18:32:05;;;;;;;1999.90;999.90;;;15.70;99.90;;;;;;6745706;88;20250;-80
2022/10/22 18:42:06;;;;;;;1999.90;999.90;;;15.60;99.90;;;;;;6740301;88;20218;-78
2022/10/22 18:52:07;;;;;;;1999.90;999.90;;;15.40;99.90;;;;;;6744214;88;20230;-78
2022/10/22 19:02:08;;;;;;;1999.90;999.90;;;15.30;99.90;;;;;;6740801;87;20212;-78
2022/10/22 19:12:09;;;;;;;1999.90;999.90;;;15.50;99.90;;;;;;6746582;88;20213;-77
2022/10/22 19:22:09;;;;;;;1999.90;999.90;;;15.50;99.90;;;;;;6744781;88;20196;-79
2022/10/22 19:32:11;;;;;;;1999.90;999.90;;;15.40;99.90;;;;;;6744314;88;20270;-79
2022/10/22 19:42:12;;;;;;;1999.90;999.90;;;15.30;99.90;;;;;;6757837;88;20624;-77
2022/10/22 19:52:13;;;;;;;1999.90;999.90;;;15.20;99.90;;;;;;6749723;88;20261;-78
2022/10/22 20:02:15;;;;;;;1999.90;999.90;;;15.10;99.90;;;;;;6744243;88;20205;-78
2022/10/22 20:12:16;;;;;;;1999.90;999.90;;;15.10;99.90;;;;;;6742538;88;20189;-79
2022/10/22 20:22:16;;;;;;;1999.90;999.90;;;15.10;99.90;;;;;;6747725;88;20210;-78
2022/10/22 20:32:17;;;;;;;1999.90;999.90;;;15.20;99.90;;;;;;6745808;88;20231;-78
2022/10/22 20:42:18;;;;;;;1999.90;999.90;;;15.20;99.90;;;;;;6748217;88;20370;-78
2022/10/22 20:52:18;;;;;;;1999.90;999.90;;;15.20;99.90;;;;;;6748074;88;20505;-78
2022/10/22 21:02:19;;;;;;;1999.90;999.90;;;15.10;99.90;;;;;;6750555;87;20191;-78
2022/10/22 21:12:19;;;;;;;1999.90;999.90;;;15.10;99.90;;;;;;6748090;88;20188;-77
2022/10/22 21:22:20;;;;;;;1999.90;999.90;;;15.10;99.90;;;;;;6748776;88;20192;-78
2022/10/22 21:32:20;;;;;;;1999.90;999.90;;;15.20;99.90;;;;;;6742027;88;20201;-78
2022/10/22 21:42:21;;;;;;;1999.90;999.90;;;15.00;99.90;;;;;;6753798;88;20200;-78
2022/10/22 21:52:21;;;;;;;1999.90;999.90;;;15.00;99.90;;;;;;6749943;88;20202;-78
2022/10/22 22:02:22;;;;;;;1999.90;999.90;;;14.90;99.90;;;;;;6750340;87;20199;-78
2022/10/22 22:22:28;;;;;;;1999.90;999.90;;;15.00;99.90;;;;;;6750098;87;20246;-77
2022/10/22 22:32:29;;;;;;;1999.90;999.90;;;14.80;99.90;;;;;;6754113;87;20307;-78
2022/10/22 22:42:29;;;;;;;1999.90;999.90;;;14.80;99.90;;;;;;6748762;87;20235;-77
2022/10/22 22:52:30;;;;;;;1999.90;999.90;;;14.70;99.90;;;;;;6751115;87;20550;-77
2022/10/22 23:02:30;;;;;;;1999.90;999.90;;;14.60;99.90;;;;;;6752730;87;20627;-77
2022/10/22 23:12:31;;;;;;;1999.90;999.90;;;14.60;99.90;;;;;;6753610;87;20722;-77
2022/10/22 23:22:31;;;;;;;1999.90;999.90;;;14.60;99.90;;;;;;6747378;87;20191;-77
2022/10/22 23:32:32;;;;;;;1999.90;999.90;;;14.60;99.90;;;;;;6748810;88;20203;-77
2022/10/22 23:42:32;;;;;;;1999.90;999.90;;;14.40;99.90;;;;;;6750357;87;20243;-76
2022/10/22 23:52:33;;;;;;;1999.90;999.90;;;14.30;99.90;;;;;;6753889;87;20205;-77
